Archival Weather

Chicago O'Hare International

Chicago, Illinois (KORD)

Report from: Saturday, November 5, 2022 2:51 PM CDT
Current time: Saturday, March 2, 2024 5:07 AM CST

Current weather – Weather history – Daily summaries
Weather forecast

Temperature11.1°C (52.0°F)
Dew point4.4°C (39.9°F)
Winds 25 kts (12.9 m/s, 28.8 mph) South-Southwest (210°)
Wind gusts 43 kts (22.1 m/s, 49.5 mph)
Peak wind 49 kts (25.2 m/s, 56.4 mph) Southwest (220°) at 19:20
Visibility10 mi. (16.1 km)
Clouds Ceiling: Broken clouds 3,000 ft. (914 m)
Broken clouds 3,700 ft. (1,128 m)
Broken clouds 10,000 ft. (3,048 m)
Altimeter29.46 in.Hg (998 mB)
Relative humidity63 %
Density altitude195 ft. (59 m)
Sea-level pressure99.8 kPa (998 mB, 29.46 in.Hg)
Remarks Automated weather observing station with precipitation discriminator
Flight conditions Visual Meteorological Conditions
Raw dataKORD 051951Z 21025G43KT 10SM BKN030 BKN037 BKN100 11/04 A2946 RMK AO2 PK WND 22049/1920 SLP975 T01110044
An error has occurred. This application may no longer respond until reloaded. Reload 🗙